sensor_id;sensor_type;location;lat;lon;timestamp;P1;durP1;ratioP1;P2;durP2;ratioP2
73678;SDS011;61978;52.742;16.962;2023-11-22T00:00:40;15.90;;;10.00;;
73678;SDS011;61978;52.742;16.962;2023-11-22T00:03:05;14.30;;;9.40;;
73678;SDS011;61978;52.742;16.962;2023-11-22T00:05:31;12.60;;;8.90;;
73678;SDS011;61978;52.742;16.962;2023-11-22T00:07:56;13.50;;;8.50;;
73678;SDS011;61978;52.742;16.962;2023-11-22T00:10:22;14.10;;;8.90;;
73678;SDS011;61978;52.742;16.962;2023-11-22T00:12:48;14.40;;;9.10;;
73678;SDS011;61978;52.742;16.962;2023-11-22T00:15:14;14.30;;;9.70;;
73678;SDS011;61978;52.742;16.962;2023-11-22T00:17:46;14.00;;;9.40;;
73678;SDS011;61978;52.742;16.962;2023-11-22T00:20:11;13.40;;;9.10;;
73678;SDS011;61978;52.742;16.962;2023-11-22T00:22:37;14.10;;;8.80;;
73678;SDS011;61978;52.742;16.962;2023-11-22T00:25:02;13.60;;;7.90;;
73678;SDS011;61978;52.742;16.962;2023-11-22T00:27:29;12.70;;;8.30;;
73678;SDS011;61978;52.742;16.962;2023-11-22T00:29:58;10.60;;;7.90;;
73678;SDS011;61978;52.742;16.962;2023-11-22T00:32:23;12.00;;;8.70;;
73678;SDS011;61978;52.742;16.962;2023-11-22T00:34:49;13.50;;;9.60;;
73678;SDS011;61978;52.742;16.962;2023-11-22T00:37:15;12.00;;;9.00;;
73678;SDS011;61978;52.742;16.962;2023-11-22T00:39:41;16.00;;;8.80;;
73678;SDS011;61978;52.742;16.962;2023-11-22T00:42:07;11.10;;;8.10;;
73678;SDS011;61978;52.742;16.962;2023-11-22T00:44:33;14.30;;;9.30;;
73678;SDS011;61978;52.742;16.962;2023-11-22T00:46:59;18.20;;;10.50;;
73678;SDS011;61978;52.742;16.962;2023-11-22T00:49:25;14.50;;;8.60;;
73678;SDS011;61978;52.742;16.962;2023-11-22T00:51:51;13.30;;;10.00;;
73678;SDS011;61978;52.742;16.962;2023-11-22T00:54:17;13.50;;;8.80;;
73678;SDS011;61978;52.742;16.962;2023-11-22T00:56:45;15.90;;;9.80;;
73678;SDS011;61978;52.742;16.962;2023-11-22T00:59:11;13.30;;;8.90;;
73678;SDS011;61978;52.742;16.962;2023-11-22T01:01:38;15.60;;;8.60;;
73678;SDS011;61978;52.742;16.962;2023-11-22T01:04:03;13.90;;;9.20;;
73678;SDS011;61978;52.742;16.962;2023-11-22T01:06:30;14.60;;;9.30;;
73678;SDS011;61978;52.742;16.962;2023-11-22T01:08:57;11.50;;;8.80;;
73678;SDS011;61978;52.742;16.962;2023-11-22T01:11:23;12.90;;;9.20;;
73678;SDS011;61978;52.742;16.962;2023-11-22T01:13:48;12.20;;;9.10;;
73678;SDS011;61978;52.742;16.962;2023-11-22T01:16:14;11.60;;;8.30;;
73678;SDS011;61978;52.742;16.962;2023-11-22T01:18:39;14.20;;;9.30;;
73678;SDS011;61978;52.742;16.962;2023-11-22T01:21:05;12.20;;;8.80;;
73678;SDS011;61978;52.742;16.962;2023-11-22T01:23:31;13.10;;;8.60;;
73678;SDS011;61978;52.742;16.962;2023-11-22T01:26:00;11.20;;;8.50;;
73678;SDS011;61978;52.742;16.962;2023-11-22T01:28:25;12.20;;;9.10;;
73678;SDS011;61978;52.742;16.962;2023-11-22T01:30:53;11.90;;;8.90;;
73678;SDS011;61978;52.742;16.962;2023-11-22T01:33:18;12.00;;;8.90;;
73678;SDS011;61978;52.742;16.962;2023-11-22T01:35:44;10.90;;;8.60;;
73678;SDS011;61978;52.742;16.962;2023-11-22T01:38:10;14.40;;;9.30;;
73678;SDS011;61978;52.742;16.962;2023-11-22T01:40:42;11.20;;;8.70;;
73678;SDS011;61978;52.742;16.962;2023-11-22T01:43:08;12.30;;;9.30;;
73678;SDS011;61978;52.742;16.962;2023-11-22T01:45:35;13.70;;;9.30;;
73678;SDS011;61978;52.742;16.962;2023-11-22T01:48:00;14.00;;;9.00;;
73678;SDS011;61978;52.742;16.962;2023-11-22T01:50:26;11.80;;;8.50;;
73678;SDS011;61978;52.742;16.962;2023-11-22T01:52:51;12.90;;;8.10;;
73678;SDS011;61978;52.742;16.962;2023-11-22T01:55:17;13.30;;;8.40;;
73678;SDS011;61978;52.742;16.962;2023-11-22T01:57:43;12.70;;;9.20;;
73678;SDS011;61978;52.742;16.962;2023-11-22T02:00:08;12.40;;;8.60;;
73678;SDS011;61978;52.742;16.962;2023-11-22T02:02:40;13.60;;;8.90;;
73678;SDS011;61978;52.742;16.962;2023-11-22T02:05:06;12.70;;;9.00;;
73678;SDS011;61978;52.742;16.962;2023-11-22T02:07:31;16.60;;;9.30;;
73678;SDS011;61978;52.742;16.962;2023-11-22T02:09:57;12.00;;;9.10;;
73678;SDS011;61978;52.742;16.962;2023-11-22T02:12:23;12.40;;;9.00;;
73678;SDS011;61978;52.742;16.962;2023-11-22T02:14:49;13.30;;;9.00;;
73678;SDS011;61978;52.742;16.962;2023-11-22T02:17:15;13.40;;;10.80;;
73678;SDS011;61978;52.742;16.962;2023-11-22T02:19:43;12.00;;;9.90;;
73678;SDS011;61978;52.742;16.962;2023-11-22T02:22:11;14.60;;;11.20;;
73678;SDS011;61978;52.742;16.962;2023-11-22T02:24:37;15.20;;;10.40;;
73678;SDS011;61978;52.742;16.962;2023-11-22T02:27:03;15.40;;;10.90;;
73678;SDS011;61978;52.742;16.962;2023-11-22T02:29:29;13.70;;;9.70;;
73678;SDS011;61978;52.742;16.962;2023-11-22T02:31:55;13.80;;;9.50;;
73678;SDS011;61978;52.742;16.962;2023-11-22T02:34:20;17.70;;;9.30;;
73678;SDS011;61978;52.742;16.962;2023-11-22T02:36:46;16.70;;;10.20;;
73678;SDS011;61978;52.742;16.962;2023-11-22T02:39:11;12.80;;;9.80;;
73678;SDS011;61978;52.742;16.962;2023-11-22T02:41:39;12.20;;;9.70;;
73678;SDS011;61978;52.742;16.962;2023-11-22T02:44:04;14.30;;;10.10;;
73678;SDS011;61978;52.742;16.962;2023-11-22T02:46:32;17.90;;;13.90;;
73678;SDS011;61978;52.742;16.962;2023-11-22T02:48:59;21.90;;;15.80;;
73678;SDS011;61978;52.742;16.962;2023-11-22T02:51:25;19.30;;;14.10;;
73678;SDS011;61978;52.742;16.962;2023-11-22T02:53:54;16.30;;;12.80;;
73678;SDS011;61978;52.742;16.962;2023-11-22T02:56:20;16.60;;;12.00;;
73678;SDS011;61978;52.742;16.962;2023-11-22T02:58:46;15.60;;;12.80;;
73678;SDS011;61978;52.742;16.962;2023-11-22T03:01:12;14.60;;;12.30;;
73678;SDS011;61978;52.742;16.962;2023-11-22T03:03:37;17.00;;;14.30;;
73678;SDS011;61978;52.742;16.962;2023-11-22T03:06:03;21.10;;;13.50;;
73678;SDS011;61978;52.742;16.962;2023-11-22T03:08:30;18.10;;;12.90;;
73678;SDS011;61978;52.742;16.962;2023-11-22T03:10:55;14.80;;;11.60;;
73678;SDS011;61978;52.742;16.962;2023-11-22T03:13:21;16.70;;;12.30;;
73678;SDS011;61978;52.742;16.962;2023-11-22T03:15:48;14.30;;;11.00;;
73678;SDS011;61978;52.742;16.962;2023-11-22T03:18:13;17.60;;;10.70;;
73678;SDS011;61978;52.742;16.962;2023-11-22T03:20:39;18.70;;;13.80;;
73678;SDS011;61978;52.742;16.962;2023-11-22T03:23:05;23.40;;;16.10;;
73678;SDS011;61978;52.742;16.962;2023-11-22T03:25:30;20.40;;;15.70;;
73678;SDS011;61978;52.742;16.962;2023-11-22T03:27:56;22.10;;;15.00;;
73678;SDS011;61978;52.742;16.962;2023-11-22T03:30:22;18.80;;;13.20;;
73678;SDS011;61978;52.742;16.962;2023-11-22T03:32:48;17.40;;;13.20;;
73678;SDS011;61978;52.742;16.962;2023-11-22T03:35:16;17.50;;;12.50;;
73678;SDS011;61978;52.742;16.962;2023-11-22T03:37:42;17.60;;;11.80;;
73678;SDS011;61978;52.742;16.962;2023-11-22T03:40:09;20.60;;;11.30;;
73678;SDS011;61978;52.742;16.962;2023-11-22T03:42:36;15.80;;;12.20;;
73678;SDS011;61978;52.742;16.962;2023-11-22T03:45:03;16.50;;;11.60;;
73678;SDS011;61978;52.742;16.962;2023-11-22T03:47:28;30.60;;;13.80;;
73678;SDS011;61978;52.742;16.962;2023-11-22T03:49:54;21.00;;;14.60;;
73678;SDS011;61978;52.742;16.962;2023-11-22T03:52:19;26.10;;;17.20;;
73678;SDS011;61978;52.742;16.962;2023-11-22T03:54:45;35.60;;;23.60;;
73678;SDS011;61978;52.742;16.962;2023-11-22T03:57:11;33.20;;;22.10;;
73678;SDS011;61978;52.742;16.962;2023-11-22T03:59:36;23.30;;;13.60;;
73678;SDS011;61978;52.742;16.962;2023-11-22T04:02:02;17.50;;;12.30;;
73678;SDS011;61978;52.742;16.962;2023-11-22T04:04:29;23.10;;;13.60;;
73678;SDS011;61978;52.742;16.962;2023-11-22T04:06:55;18.20;;;12.30;;
73678;SDS011;61978;52.742;16.962;2023-11-22T04:09:21;24.20;;;13.90;;
73678;SDS011;61978;52.742;16.962;2023-11-22T04:11:47;16.70;;;11.70;;
73678;SDS011;61978;52.742;16.962;2023-11-22T04:14:14;19.60;;;13.00;;
73678;SDS011;61978;52.742;16.962;2023-11-22T04:16:40;18.90;;;12.10;;
73678;SDS011;61978;52.742;16.962;2023-11-22T04:19:05;16.50;;;11.00;;
73678;SDS011;61978;52.742;16.962;2023-11-22T04:21:31;16.50;;;11.50;;
73678;SDS011;61978;52.742;16.962;2023-11-22T04:23:56;15.50;;;11.60;;
73678;SDS011;61978;52.742;16.962;2023-11-22T04:26:23;17.20;;;11.10;;
73678;SDS011;61978;52.742;16.962;2023-11-22T04:28:50;21.00;;;12.10;;
73678;SDS011;61978;52.742;16.962;2023-11-22T04:31:15;18.40;;;12.30;;
73678;SDS011;61978;52.742;16.962;2023-11-22T04:33:42;16.80;;;12.50;;
73678;SDS011;61978;52.742;16.962;2023-11-22T04:36:07;16.70;;;12.60;;
73678;SDS011;61978;52.742;16.962;2023-11-22T04:38:33;14.90;;;12.30;;
73678;SDS011;61978;52.742;16.962;2023-11-22T04:40:59;17.10;;;13.40;;
73678;SDS011;61978;52.742;16.962;2023-11-22T04:43:25;19.40;;;14.00;;
73678;SDS011;61978;52.742;16.962;2023-11-22T04:45:51;18.70;;;14.50;;
73678;SDS011;61978;52.742;16.962;2023-11-22T04:48:17;19.60;;;14.90;;
73678;SDS011;61978;52.742;16.962;2023-11-22T04:50:42;19.80;;;15.10;;
73678;SDS011;61978;52.742;16.962;2023-11-22T04:53:08;20.10;;;15.40;;
73678;SDS011;61978;52.742;16.962;2023-11-22T04:55:34;22.30;;;15.80;;
73678;SDS011;61978;52.742;16.962;2023-11-22T04:58:00;23.70;;;17.00;;
73678;SDS011;61978;52.742;16.962;2023-11-22T05:00:26;21.80;;;16.00;;
73678;SDS011;61978;52.742;16.962;2023-11-22T05:02:52;23.70;;;16.10;;
73678;SDS011;61978;52.742;16.962;2023-11-22T05:05:20;20.70;;;15.90;;
73678;SDS011;61978;52.742;16.962;2023-11-22T05:07:46;20.40;;;15.30;;
73678;SDS011;61978;52.742;16.962;2023-11-22T05:10:15;25.60;;;15.50;;
73678;SDS011;61978;52.742;16.962;2023-11-22T05:12:44;21.10;;;14.60;;
73678;SDS011;61978;52.742;16.962;2023-11-22T05:15:10;18.70;;;13.90;;
73678;SDS011;61978;52.742;16.962;2023-11-22T05:17:39;30.00;;;15.80;;
73678;SDS011;61978;52.742;16.962;2023-11-22T05:20:06;25.90;;;16.60;;
73678;SDS011;61978;52.742;16.962;2023-11-22T05:22:35;20.90;;;15.40;;
73678;SDS011;61978;52.742;16.962;2023-11-22T05:25:00;21.30;;;15.90;;
73678;SDS011;61978;52.742;16.962;2023-11-22T05:27:26;26.00;;;16.60;;
73678;SDS011;61978;52.742;16.962;2023-11-22T05:29:51;21.50;;;16.20;;
73678;SDS011;61978;52.742;16.962;2023-11-22T05:32:17;21.60;;;16.30;;
73678;SDS011;61978;52.742;16.962;2023-11-22T05:34:42;30.20;;;18.20;;
73678;SDS011;61978;52.742;16.962;2023-11-22T05:37:08;25.30;;;15.90;;
73678;SDS011;61978;52.742;16.962;2023-11-22T05:39:34;19.50;;;15.60;;
73678;SDS011;61978;52.742;16.962;2023-11-22T05:41:59;26.10;;;17.50;;
73678;SDS011;61978;52.742;16.962;2023-11-22T05:44:26;22.00;;;16.90;;
73678;SDS011;61978;52.742;16.962;2023-11-22T05:46:51;26.60;;;16.70;;
73678;SDS011;61978;52.742;16.962;2023-11-22T05:49:17;25.30;;;17.90;;
73678;SDS011;61978;52.742;16.962;2023-11-22T05:51:43;27.90;;;17.90;;
73678;SDS011;61978;52.742;16.962;2023-11-22T05:54:09;29.20;;;17.10;;
73678;SDS011;61978;52.742;16.962;2023-11-22T05:56:37;25.80;;;17.70;;
73678;SDS011;61978;52.742;16.962;2023-11-22T05:59:03;22.20;;;18.60;;
73678;SDS011;61978;52.742;16.962;2023-11-22T06:01:29;22.10;;;16.00;;
73678;SDS011;61978;52.742;16.962;2023-11-22T06:03:55;23.50;;;15.90;;
73678;SDS011;61978;52.742;16.962;2023-11-22T06:06:21;24.50;;;16.10;;
73678;SDS011;61978;52.742;16.962;2023-11-22T06:08:47;18.00;;;14.60;;
73678;SDS011;61978;52.742;16.962;2023-11-22T06:11:13;25.40;;;16.20;;
73678;SDS011;61978;52.742;16.962;2023-11-22T06:13:40;21.00;;;15.40;;
73678;SDS011;61978;52.742;16.962;2023-11-22T06:16:06;28.10;;;16.70;;
73678;SDS011;61978;52.742;16.962;2023-11-22T06:18:32;26.50;;;16.80;;
73678;SDS011;61978;52.742;16.962;2023-11-22T06:20:59;25.50;;;17.50;;
73678;SDS011;61978;52.742;16.962;2023-11-22T06:23:25;38.90;;;21.60;;
73678;SDS011;61978;52.742;16.962;2023-11-22T06:25:50;35.60;;;22.10;;
73678;SDS011;61978;52.742;16.962;2023-11-22T06:28:16;58.10;;;34.90;;
73678;SDS011;61978;52.742;16.962;2023-11-22T06:30:43;41.10;;;26.00;;
73678;SDS011;61978;52.742;16.962;2023-11-22T06:33:08;37.30;;;24.80;;
73678;SDS011;61978;52.742;16.962;2023-11-22T06:35:34;81.80;;;44.70;;
73678;SDS011;61978;52.742;16.962;2023-11-22T06:38:01;74.30;;;37.10;;
73678;SDS011;61978;52.742;16.962;2023-11-22T06:40:27;49.40;;;19.80;;
73678;SDS011;61978;52.742;16.962;2023-11-22T06:42:55;29.00;;;17.70;;
73678;SDS011;61978;52.742;16.962;2023-11-22T06:45:20;29.40;;;18.70;;
73678;SDS011;61978;52.742;16.962;2023-11-22T06:47:47;29.70;;;17.40;;
73678;SDS011;61978;52.742;16.962;2023-11-22T06:50:13;32.00;;;16.30;;
73678;SDS011;61978;52.742;16.962;2023-11-22T06:52:39;25.10;;;16.50;;
73678;SDS011;61978;52.742;16.962;2023-11-22T06:55:06;25.60;;;16.30;;
73678;SDS011;61978;52.742;16.962;2023-11-22T06:57:35;26.70;;;17.30;;
73678;SDS011;61978;52.742;16.962;2023-11-22T07:00:01;28.00;;;17.90;;
73678;SDS011;61978;52.742;16.962;2023-11-22T07:02:27;34.10;;;19.20;;
73678;SDS011;61978;52.742;16.962;2023-11-22T07:04:52;73.10;;;37.80;;
73678;SDS011;61978;52.742;16.962;2023-11-22T07:07:18;71.10;;;37.90;;
73678;SDS011;61978;52.742;16.962;2023-11-22T07:09:45;51.30;;;30.10;;
73678;SDS011;61978;52.742;16.962;2023-11-22T07:12:11;49.70;;;22.10;;
73678;SDS011;61978;52.742;16.962;2023-11-22T07:14:38;35.00;;;21.40;;
73678;SDS011;61978;52.742;16.962;2023-11-22T07:17:03;51.60;;;20.90;;
73678;SDS011;61978;52.742;16.962;2023-11-22T07:19:33;68.10;;;21.50;;
73678;SDS011;61978;52.742;16.962;2023-11-22T07:22:04;24.70;;;16.60;;
73678;SDS011;61978;52.742;16.962;2023-11-22T07:24:30;21.60;;;16.10;;
73678;SDS011;61978;52.742;16.962;2023-11-22T07:26:59;78.30;;;59.40;;
73678;SDS011;61978;52.742;16.962;2023-11-22T07:29:26;26.00;;;20.70;;
73678;SDS011;61978;52.742;16.962;2023-11-22T07:31:54;24.20;;;16.20;;
73678;SDS011;61978;52.742;16.962;2023-11-22T07:34:21;22.70;;;15.60;;
73678;SDS011;61978;52.742;16.962;2023-11-22T07:36:47;23.40;;;15.70;;
73678;SDS011;61978;52.742;16.962;2023-11-22T07:39:12;22.30;;;15.70;;
73678;SDS011;61978;52.742;16.962;2023-11-22T07:41:38;22.20;;;14.80;;
73678;SDS011;61978;52.742;16.962;2023-11-22T07:44:04;21.00;;;14.80;;
73678;SDS011;61978;52.742;16.962;2023-11-22T07:46:30;29.60;;;14.90;;
73678;SDS011;61978;52.742;16.962;2023-11-22T07:48:56;29.90;;;18.40;;
73678;SDS011;61978;52.742;16.962;2023-11-22T07:51:21;26.50;;;15.40;;
73678;SDS011;61978;52.742;16.962;2023-11-22T07:53:49;24.10;;;16.80;;
73678;SDS011;61978;52.742;16.962;2023-11-22T07:56:14;30.60;;;18.20;;
73678;SDS011;61978;52.742;16.962;2023-11-22T07:58:40;22.70;;;15.30;;
73678;SDS011;61978;52.742;16.962;2023-11-22T08:01:06;25.70;;;16.00;;
73678;SDS011;61978;52.742;16.962;2023-11-22T08:03:38;69.10;;;52.20;;
73678;SDS011;61978;52.742;16.962;2023-11-22T08:06:04;24.20;;;16.80;;
73678;SDS011;61978;52.742;16.962;2023-11-22T08:08:31;22.40;;;15.20;;
73678;SDS011;61978;52.742;16.962;2023-11-22T08:11:00;24.30;;;16.90;;
73678;SDS011;61978;52.742;16.962;2023-11-22T08:13:27;21.80;;;15.30;;
73678;SDS011;61978;52.742;16.962;2023-11-22T08:15:53;22.20;;;16.40;;
73678;SDS011;61978;52.742;16.962;2023-11-22T08:18:19;35.50;;;29.00;;
73678;SDS011;61978;52.742;16.962;2023-11-22T08:20:45;26.60;;;17.10;;
73678;SDS011;61978;52.742;16.962;2023-11-22T08:23:11;25.20;;;16.20;;
73678;SDS011;61978;52.742;16.962;2023-11-22T08:25:39;37.20;;;26.70;;
73678;SDS011;61978;52.742;16.962;2023-11-22T08:28:04;20.10;;;15.50;;
73678;SDS011;61978;52.742;16.962;2023-11-22T08:30:33;21.10;;;15.10;;
73678;SDS011;61978;52.742;16.962;2023-11-22T08:33:01;23.30;;;16.80;;
73678;SDS011;61978;52.742;16.962;2023-11-22T08:35:27;23.90;;;17.70;;
73678;SDS011;61978;52.742;16.962;2023-11-22T08:37:53;30.40;;;22.50;;
73678;SDS011;61978;52.742;16.962;2023-11-22T08:40:18;25.00;;;16.70;;
73678;SDS011;61978;52.742;16.962;2023-11-22T08:42:49;24.00;;;17.70;;
73678;SDS011;61978;52.742;16.962;2023-11-22T08:45:15;25.30;;;18.60;;
73678;SDS011;61978;52.742;16.962;2023-11-22T08:47:41;33.80;;;24.40;;
73678;SDS011;61978;52.742;16.962;2023-11-22T08:50:07;31.80;;;22.40;;
73678;SDS011;61978;52.742;16.962;2023-11-22T08:52:34;28.50;;;19.30;;
73678;SDS011;61978;52.742;16.962;2023-11-22T08:54:59;26.20;;;17.10;;
73678;SDS011;61978;52.742;16.962;2023-11-22T08:57:26;27.00;;;18.10;;
73678;SDS011;61978;52.742;16.962;2023-11-22T08:59:52;29.40;;;20.00;;
73678;SDS011;61978;52.742;16.962;2023-11-22T09:02:19;29.80;;;19.60;;
73678;SDS011;61978;52.742;16.962;2023-11-22T09:04:48;31.80;;;19.40;;
73678;SDS011;61978;52.742;16.962;2023-11-22T09:07:13;25.40;;;18.20;;
73678;SDS011;61978;52.742;16.962;2023-11-22T09:09:41;20.10;;;14.70;;
73678;SDS011;61978;52.742;16.962;2023-11-22T09:12:08;20.60;;;15.20;;
73678;SDS011;61978;52.742;16.962;2023-11-22T09:14:40;24.30;;;15.70;;
73678;SDS011;61978;52.742;16.962;2023-11-22T09:17:08;33.70;;;22.00;;
73678;SDS011;61978;52.742;16.962;2023-11-22T09:19:34;51.00;;;26.20;;
73678;SDS011;61978;52.742;16.962;2023-11-22T09:22:04;19.10;;;14.50;;
73678;SDS011;61978;52.742;16.962;2023-11-22T09:24:33;21.40;;;14.80;;
73678;SDS011;61978;52.742;16.962;2023-11-22T09:27:02;19.50;;;14.50;;
73678;SDS011;61978;52.742;16.962;2023-11-22T09:29:31;36.00;;;18.50;;
73678;SDS011;61978;52.742;16.962;2023-11-22T09:31:59;23.10;;;15.00;;
73678;SDS011;61978;52.742;16.962;2023-11-22T09:34:27;58.60;;;24.00;;
73678;SDS011;61978;52.742;16.962;2023-11-22T09:36:53;37.30;;;20.90;;
73678;SDS011;61978;52.742;16.962;2023-11-22T09:39:19;37.10;;;25.30;;
73678;SDS011;61978;52.742;16.962;2023-11-22T09:41:53;101.90;;;49.50;;
73678;SDS011;61978;52.742;16.962;2023-11-22T09:44:19;64.90;;;34.40;;
73678;SDS011;61978;52.742;16.962;2023-11-22T09:46:48;18.90;;;14.30;;
73678;SDS011;61978;52.742;16.962;2023-11-22T09:49:14;39.00;;;23.50;;
73678;SDS011;61978;52.742;16.962;2023-11-22T09:51:46;18.50;;;14.40;;
73678;SDS011;61978;52.742;16.962;2023-11-22T09:54:14;60.90;;;30.60;;
73678;SDS011;61978;52.742;16.962;2023-11-22T09:56:43;23.30;;;16.40;;
73678;SDS011;61978;52.742;16.962;2023-11-22T09:59:15;20.40;;;15.50;;
73678;SDS011;61978;52.742;16.962;2023-11-22T10:01:46;20.90;;;14.10;;
73678;SDS011;61978;52.742;16.962;2023-11-22T10:04:12;19.50;;;13.30;;
73678;SDS011;61978;52.742;16.962;2023-11-22T10:06:39;17.10;;;14.50;;
73678;SDS011;61978;52.742;16.962;2023-11-22T10:09:13;18.70;;;14.40;;
73678;SDS011;61978;52.742;16.962;2023-11-22T10:11:40;20.20;;;15.50;;
73678;SDS011;61978;52.742;16.962;2023-11-22T10:14:10;20.60;;;14.30;;
73678;SDS011;61978;52.742;16.962;2023-11-22T10:16:39;23.80;;;14.60;;
73678;SDS011;61978;52.742;16.962;2023-11-22T10:19:11;21.90;;;14.70;;
73678;SDS011;61978;52.742;16.962;2023-11-22T10:21:39;19.80;;;14.70;;
73678;SDS011;61978;52.742;16.962;2023-11-22T10:24:05;20.60;;;14.90;;
73678;SDS011;61978;52.742;16.962;2023-11-22T10:26:35;21.20;;;15.40;;
73678;SDS011;61978;52.742;16.962;2023-11-22T10:29:02;23.10;;;14.60;;
73678;SDS011;61978;52.742;16.962;2023-11-22T10:31:28;20.40;;;14.20;;
73678;SDS011;61978;52.742;16.962;2023-11-22T10:33:56;18.10;;;12.90;;
73678;SDS011;61978;52.742;16.962;2023-11-22T10:36:24;17.80;;;13.20;;
73678;SDS011;61978;52.742;16.962;2023-11-22T10:38:49;19.70;;;14.40;;
73678;SDS011;61978;52.742;16.962;2023-11-22T10:41:19;24.60;;;15.10;;
73678;SDS011;61978;52.742;16.962;2023-11-22T10:43:45;20.60;;;13.40;;
73678;SDS011;61978;52.742;16.962;2023-11-22T10:46:15;19.40;;;13.20;;
73678;SDS011;61978;52.742;16.962;2023-11-22T10:48:42;19.20;;;12.80;;
73678;SDS011;61978;52.742;16.962;2023-11-22T10:51:08;17.30;;;13.00;;
73678;SDS011;61978;52.742;16.962;2023-11-22T10:53:37;13.70;;;10.70;;
73678;SDS011;61978;52.742;16.962;2023-11-22T10:56:16;22.10;;;12.80;;
73678;SDS011;61978;52.742;16.962;2023-11-22T10:59:03;23.00;;;15.10;;
73678;SDS011;61978;52.742;16.962;2023-11-22T11:01:33;40.60;;;22.90;;
73678;SDS011;61978;52.742;16.962;2023-11-22T11:04:02;16.90;;;12.30;;
73678;SDS011;61978;52.742;16.962;2023-11-22T11:06:32;20.60;;;15.70;;
73678;SDS011;61978;52.742;16.962;2023-11-22T11:09:03;21.60;;;13.40;;
73678;SDS011;61978;52.742;16.962;2023-11-22T11:11:34;21.20;;;14.40;;
73678;SDS011;61978;52.742;16.962;2023-11-22T11:14:02;19.70;;;12.30;;
73678;SDS011;61978;52.742;16.962;2023-11-22T11:16:28;19.50;;;13.00;;
73678;SDS011;61978;52.742;16.962;2023-11-22T11:18:56;21.50;;;13.00;;
73678;SDS011;61978;52.742;16.962;2023-11-22T11:21:22;20.00;;;14.30;;
73678;SDS011;61978;52.742;16.962;2023-11-22T11:23:54;16.20;;;11.80;;
73678;SDS011;61978;52.742;16.962;2023-11-22T11:26:23;15.60;;;11.20;;
73678;SDS011;61978;52.742;16.962;2023-11-22T11:28:51;14.70;;;10.70;;
73678;SDS011;61978;52.742;16.962;2023-11-22T11:31:20;13.00;;;8.70;;
73678;SDS011;61978;52.742;16.962;2023-11-22T11:36:22;17.10;;;10.30;;
73678;SDS011;61978;52.742;16.962;2023-11-22T11:38:50;20.40;;;10.40;;
73678;SDS011;61978;52.742;16.962;2023-11-22T11:41:16;18.80;;;11.20;;
73678;SDS011;61978;52.742;16.962;2023-11-22T11:43:43;24.50;;;12.10;;
73678;SDS011;61978;52.742;16.962;2023-11-22T11:46:11;17.90;;;12.20;;
73678;SDS011;61978;52.742;16.962;2023-11-22T11:48:37;97.50;;;49.40;;
73678;SDS011;61978;52.742;16.962;2023-11-22T11:51:03;48.80;;;28.10;;
73678;SDS011;61978;52.742;16.962;2023-11-22T11:53:28;16.20;;;11.50;;
73678;SDS011;61978;52.742;16.962;2023-11-22T11:55:56;15.50;;;12.20;;
73678;SDS011;61978;52.742;16.962;2023-11-22T11:58:23;18.30;;;13.50;;
73678;SDS011;61978;52.742;16.962;2023-11-22T12:00:54;18.70;;;13.40;;
73678;SDS011;61978;52.742;16.962;2023-11-22T12:03:21;20.30;;;12.70;;
73678;SDS011;61978;52.742;16.962;2023-11-22T12:05:47;16.50;;;12.50;;
73678;SDS011;61978;52.742;16.962;2023-11-22T12:08:13;14.80;;;11.60;;
73678;SDS011;61978;52.742;16.962;2023-11-22T12:10:44;19.50;;;12.40;;
73678;SDS011;61978;52.742;16.962;2023-11-22T12:13:17;33.60;;;21.20;;
73678;SDS011;61978;52.742;16.962;2023-11-22T12:15:43;18.40;;;12.80;;
73678;SDS011;61978;52.742;16.962;2023-11-22T12:18:10;17.90;;;13.10;;
73678;SDS011;61978;52.742;16.962;2023-11-22T12:20:39;17.40;;;13.00;;
73678;SDS011;61978;52.742;16.962;2023-11-22T12:23:05;19.90;;;14.80;;
73678;SDS011;61978;52.742;16.962;2023-11-22T12:25:32;18.50;;;13.70;;
73678;SDS011;61978;52.742;16.962;2023-11-22T12:27:58;27.30;;;18.20;;
73678;SDS011;61978;52.742;16.962;2023-11-22T12:30:27;22.20;;;16.40;;
73678;SDS011;61978;52.742;16.962;2023-11-22T12:32:55;22.60;;;15.70;;
73678;SDS011;61978;52.742;16.962;2023-11-22T12:35:21;25.50;;;18.60;;
73678;SDS011;61978;52.742;16.962;2023-11-22T12:37:48;26.90;;;17.00;;
73678;SDS011;61978;52.742;16.962;2023-11-22T12:40:14;22.60;;;16.60;;
73678;SDS011;61978;52.742;16.962;2023-11-22T12:42:52;31.30;;;23.50;;
73678;SDS011;61978;52.742;16.962;2023-11-22T12:45:28;22.90;;;17.00;;
73678;SDS011;61978;52.742;16.962;2023-11-22T12:47:55;26.10;;;16.90;;
73678;SDS011;61978;52.742;16.962;2023-11-22T12:50:37;23.60;;;17.10;;
73678;SDS011;61978;52.742;16.962;2023-11-22T12:55:37;24.80;;;18.20;;
73678;SDS011;61978;52.742;16.962;2023-11-22T12:58:03;24.70;;;18.20;;
73678;SDS011;61978;52.742;16.962;2023-11-22T13:00:29;23.50;;;17.30;;
73678;SDS011;61978;52.742;16.962;2023-11-22T13:02:55;23.40;;;16.50;;
73678;SDS011;61978;52.742;16.962;2023-11-22T13:05:22;23.70;;;17.30;;
73678;SDS011;61978;52.742;16.962;2023-11-22T13:07:47;24.80;;;17.90;;
73678;SDS011;61978;52.742;16.962;2023-11-22T13:10:13;21.60;;;17.30;;
73678;SDS011;61978;52.742;16.962;2023-11-22T13:12:42;23.20;;;17.60;;
73678;SDS011;61978;52.742;16.962;2023-11-22T13:15:14;25.70;;;17.30;;
73678;SDS011;61978;52.742;16.962;2023-11-22T13:17:44;32.50;;;19.40;;
73678;SDS011;61978;52.742;16.962;2023-11-22T13:20:13;33.70;;;22.90;;
73678;SDS011;61978;52.742;16.962;2023-11-22T13:22:43;30.50;;;21.40;;
73678;SDS011;61978;52.742;16.962;2023-11-22T13:25:09;29.50;;;21.10;;
73678;SDS011;61978;52.742;16.962;2023-11-22T13:27:43;32.10;;;20.80;;
73678;SDS011;61978;52.742;16.962;2023-11-22T13:30:18;30.60;;;20.90;;
73678;SDS011;61978;52.742;16.962;2023-11-22T13:32:51;38.20;;;26.00;;
73678;SDS011;61978;52.742;16.962;2023-11-22T13:35:17;41.70;;;26.40;;
73678;SDS011;61978;52.742;16.962;2023-11-22T13:37:43;37.10;;;25.10;;
73678;SDS011;61978;52.742;16.962;2023-11-22T13:40:10;32.00;;;22.00;;
73678;SDS011;61978;52.742;16.962;2023-11-22T13:42:43;33.00;;;21.80;;
73678;SDS011;61978;52.742;16.962;2023-11-22T13:45:12;35.90;;;22.20;;
73678;SDS011;61978;52.742;16.962;2023-11-22T13:47:46;32.60;;;21.90;;
73678;SDS011;61978;52.742;16.962;2023-11-22T13:50:18;65.90;;;44.80;;
73678;SDS011;61978;52.742;16.962;2023-11-22T13:52:54;52.30;;;36.20;;
73678;SDS011;61978;52.742;16.962;2023-11-22T13:57:53;64.00;;;34.00;;
73678;SDS011;61978;52.742;16.962;2023-11-22T14:00:20;75.60;;;42.70;;
73678;SDS011;61978;52.742;16.962;2023-11-22T14:02:48;46.80;;;31.70;;
73678;SDS011;61978;52.742;16.962;2023-11-22T14:05:31;43.00;;;28.00;;
73678;SDS011;61978;52.742;16.962;2023-11-22T14:08:00;38.30;;;26.20;;
73678;SDS011;61978;52.742;16.962;2023-11-22T14:10:27;49.60;;;34.00;;
73678;SDS011;61978;52.742;16.962;2023-11-22T14:12:54;44.40;;;27.40;;
73678;SDS011;61978;52.742;16.962;2023-11-22T14:15:26;39.90;;;24.60;;
73678;SDS011;61978;52.742;16.962;2023-11-22T14:17:53;46.90;;;31.20;;